sensor_id;sensor_type;location;lat;lon;timestamp;P1;durP1;ratioP1;P2;durP2;ratioP2
37355;SDS011;48747;50.250;18.848;2023-08-31T00:00:49;11.30;;;7.97;;
37355;SDS011;48747;50.250;18.848;2023-08-31T00:02:53;12.40;;;8.08;;
37355;SDS011;48747;50.250;18.848;2023-08-31T00:04:56;11.40;;;8.20;;
37355;SDS011;48747;50.250;18.848;2023-08-31T00:07:02;9.28;;;8.08;;
37355;SDS011;48747;50.250;18.848;2023-08-31T00:09:04;14.93;;;8.05;;
37355;SDS011;48747;50.250;18.848;2023-08-31T00:11:09;12.50;;;8.10;;
37355;SDS011;48747;50.250;18.848;2023-08-31T00:13:13;12.70;;;7.50;;
37355;SDS011;48747;50.250;18.848;2023-08-31T00:15:17;10.63;;;7.78;;
37355;SDS011;48747;50.250;18.848;2023-08-31T00:17:20;7.67;;;6.70;;
37355;SDS011;48747;50.250;18.848;2023-08-31T00:19:24;10.20;;;8.20;;
37355;SDS011;48747;50.250;18.848;2023-08-31T00:21:27;9.98;;;7.87;;
37355;SDS011;48747;50.250;18.848;2023-08-31T00:23:31;13.53;;;8.35;;
37355;SDS011;48747;50.250;18.848;2023-08-31T00:25:35;10.08;;;8.00;;
37355;SDS011;48747;50.250;18.848;2023-08-31T00:27:38;11.78;;;8.33;;
37355;SDS011;48747;50.250;18.848;2023-08-31T00:29:42;12.90;;;8.28;;
37355;SDS011;48747;50.250;18.848;2023-08-31T00:31:46;15.20;;;8.20;;
37355;SDS011;48747;50.250;18.848;2023-08-31T00:33:51;13.53;;;8.85;;
37355;SDS011;48747;50.250;18.848;2023-08-31T00:35:54;12.23;;;8.50;;
37355;SDS011;48747;50.250;18.848;2023-08-31T00:37:57;10.93;;;8.65;;
37355;SDS011;48747;50.250;18.848;2023-08-31T00:40:01;13.72;;;8.35;;
37355;SDS011;48747;50.250;18.848;2023-08-31T00:42:06;15.03;;;8.20;;
37355;SDS011;48747;50.250;18.848;2023-08-31T00:44:10;12.37;;;8.38;;
37355;SDS011;48747;50.250;18.848;2023-08-31T00:46:13;12.78;;;8.25;;
37355;SDS011;48747;50.250;18.848;2023-08-31T00:48:17;11.12;;;8.25;;
37355;SDS011;48747;50.250;18.848;2023-08-31T00:50:22;10.45;;;7.83;;
37355;SDS011;48747;50.250;18.848;2023-08-31T00:52:25;11.68;;;9.38;;
37355;SDS011;48747;50.250;18.848;2023-08-31T00:54:28;13.98;;;8.60;;
37355;SDS011;48747;50.250;18.848;2023-08-31T00:56:32;11.35;;;8.70;;
37355;SDS011;48747;50.250;18.848;2023-08-31T00:58:35;12.68;;;8.25;;
37355;SDS011;48747;50.250;18.848;2023-08-31T01:00:50;12.03;;;7.87;;
37355;SDS011;48747;50.250;18.848;2023-08-31T01:03:17;14.38;;;8.63;;
37355;SDS011;48747;50.250;18.848;2023-08-31T01:07:46;12.00;;;8.93;;
37355;SDS011;48747;50.250;18.848;2023-08-31T01:09:45;11.50;;;7.95;;
37355;SDS011;48747;50.250;18.848;2023-08-31T01:14:07;10.45;;;8.10;;
37355;SDS011;48747;50.250;18.848;2023-08-31T01:16:05;13.68;;;8.30;;
37355;SDS011;48747;50.250;18.848;2023-08-31T01:18:10;14.47;;;9.43;;
37355;SDS011;48747;50.250;18.848;2023-08-31T01:20:18;10.82;;;7.90;;
37355;SDS011;48747;50.250;18.848;2023-08-31T01:24:35;13.40;;;9.38;;
37355;SDS011;48747;50.250;18.848;2023-08-31T01:26:39;14.18;;;8.45;;
37355;SDS011;48747;50.250;18.848;2023-08-31T01:28:44;15.08;;;9.23;;
37355;SDS011;48747;50.250;18.848;2023-08-31T01:30:47;12.93;;;8.90;;
37355;SDS011;48747;50.250;18.848;2023-08-31T01:32:50;12.33;;;8.40;;
37355;SDS011;48747;50.250;18.848;2023-08-31T01:34:53;12.78;;;8.48;;
37355;SDS011;48747;50.250;18.848;2023-08-31T01:36:59;11.30;;;8.10;;
37355;SDS011;48747;50.250;18.848;2023-08-31T01:39:06;11.40;;;8.00;;
37355;SDS011;48747;50.250;18.848;2023-08-31T01:41:11;12.25;;;7.95;;
37355;SDS011;48747;50.250;18.848;2023-08-31T01:43:18;11.73;;;8.53;;
37355;SDS011;48747;50.250;18.848;2023-08-31T01:45:24;13.38;;;8.10;;
37355;SDS011;48747;50.250;18.848;2023-08-31T01:47:28;11.35;;;8.48;;
37355;SDS011;48747;50.250;18.848;2023-08-31T01:49:41;11.95;;;8.13;;
37355;SDS011;48747;50.250;18.848;2023-08-31T01:51:44;10.95;;;8.10;;
37355;SDS011;48747;50.250;18.848;2023-08-31T01:53:47;13.65;;;8.85;;
37355;SDS011;48747;50.250;18.848;2023-08-31T01:55:50;11.70;;;8.95;;
37355;SDS011;48747;50.250;18.848;2023-08-31T01:57:53;11.65;;;8.05;;
37355;SDS011;48747;50.250;18.848;2023-08-31T01:59:56;10.23;;;8.05;;
37355;SDS011;48747;50.250;18.848;2023-08-31T02:02:00;13.08;;;8.63;;
37355;SDS011;48747;50.250;18.848;2023-08-31T02:04:03;13.05;;;7.97;;
37355;SDS011;48747;50.250;18.848;2023-08-31T02:06:06;12.70;;;7.90;;
37355;SDS011;48747;50.250;18.848;2023-08-31T02:08:10;10.68;;;8.23;;
37355;SDS011;48747;50.250;18.848;2023-08-31T02:10:13;10.35;;;8.05;;
37355;SDS011;48747;50.250;18.848;2023-08-31T02:12:16;14.03;;;8.53;;
37355;SDS011;48747;50.250;18.848;2023-08-31T02:14:19;14.83;;;8.25;;
37355;SDS011;48747;50.250;18.848;2023-08-31T02:16:22;12.85;;;8.43;;
37355;SDS011;48747;50.250;18.848;2023-08-31T02:18:25;11.10;;;7.90;;
37355;SDS011;48747;50.250;18.848;2023-08-31T02:20:28;10.35;;;8.30;;
37355;SDS011;48747;50.250;18.848;2023-08-31T02:22:33;14.10;;;8.80;;
37355;SDS011;48747;50.250;18.848;2023-08-31T02:24:39;11.88;;;8.33;;
37355;SDS011;48747;50.250;18.848;2023-08-31T02:26:44;10.55;;;8.63;;
37355;SDS011;48747;50.250;18.848;2023-08-31T02:28:52;12.40;;;8.13;;
37355;SDS011;48747;50.250;18.848;2023-08-31T02:30:58;11.95;;;8.33;;
37355;SDS011;48747;50.250;18.848;2023-08-31T02:33:02;10.78;;;7.95;;
37355;SDS011;48747;50.250;18.848;2023-08-31T02:35:06;11.25;;;8.13;;
37355;SDS011;48747;50.250;18.848;2023-08-31T02:37:09;12.50;;;7.97;;
37355;SDS011;48747;50.250;18.848;2023-08-31T02:39:12;10.68;;;8.63;;
37355;SDS011;48747;50.250;18.848;2023-08-31T02:41:16;10.78;;;8.30;;
37355;SDS011;48747;50.250;18.848;2023-08-31T02:43:19;12.37;;;8.40;;
37355;SDS011;48747;50.250;18.848;2023-08-31T02:45:28;12.55;;;8.13;;
37355;SDS011;48747;50.250;18.848;2023-08-31T02:47:27;11.15;;;8.35;;
37355;SDS011;48747;50.250;18.848;2023-08-31T02:49:33;14.33;;;8.25;;
37355;SDS011;48747;50.250;18.848;2023-08-31T02:51:36;10.63;;;8.00;;
37355;SDS011;48747;50.250;18.848;2023-08-31T02:53:39;12.58;;;8.05;;
37355;SDS011;48747;50.250;18.848;2023-08-31T02:55:42;12.07;;;8.93;;
37355;SDS011;48747;50.250;18.848;2023-08-31T02:57:47;12.37;;;8.20;;
37355;SDS011;48747;50.250;18.848;2023-08-31T02:59:50;14.73;;;8.78;;
37355;SDS011;48747;50.250;18.848;2023-08-31T03:01:53;11.75;;;8.13;;
37355;SDS011;48747;50.250;18.848;2023-08-31T03:03:56;11.78;;;7.85;;
37355;SDS011;48747;50.250;18.848;2023-08-31T03:05:59;10.63;;;8.03;;
37355;SDS011;48747;50.250;18.848;2023-08-31T03:08:02;12.35;;;7.78;;
37355;SDS011;48747;50.250;18.848;2023-08-31T03:10:05;11.33;;;8.20;;
37355;SDS011;48747;50.250;18.848;2023-08-31T03:12:09;11.12;;;8.00;;
37355;SDS011;48747;50.250;18.848;2023-08-31T03:14:12;11.15;;;6.62;;
37355;SDS011;48747;50.250;18.848;2023-08-31T03:16:15;10.78;;;7.80;;
37355;SDS011;48747;50.250;18.848;2023-08-31T03:18:18;16.05;;;7.80;;
37355;SDS011;48747;50.250;18.848;2023-08-31T03:20:21;13.15;;;7.80;;
37355;SDS011;48747;50.250;18.848;2023-08-31T03:22:24;11.75;;;7.90;;
37355;SDS011;48747;50.250;18.848;2023-08-31T03:24:33;10.82;;;7.22;;
37355;SDS011;48747;50.250;18.848;2023-08-31T03:26:33;10.25;;;7.83;;
37355;SDS011;48747;50.250;18.848;2023-08-31T03:28:37;11.90;;;7.28;;
37355;SDS011;48747;50.250;18.848;2023-08-31T03:30:42;14.73;;;7.33;;
37355;SDS011;48747;50.250;18.848;2023-08-31T03:32:46;10.98;;;6.95;;
37355;SDS011;48747;50.250;18.848;2023-08-31T03:34:50;9.45;;;6.45;;
37355;SDS011;48747;50.250;18.848;2023-08-31T03:36:53;12.45;;;6.92;;
37355;SDS011;48747;50.250;18.848;2023-08-31T03:38:56;12.68;;;7.90;;
37355;SDS011;48747;50.250;18.848;2023-08-31T03:40:59;11.30;;;7.45;;
37355;SDS011;48747;50.250;18.848;2023-08-31T03:43:02;10.20;;;6.85;;
37355;SDS011;48747;50.250;18.848;2023-08-31T03:45:05;10.70;;;7.42;;
37355;SDS011;48747;50.250;18.848;2023-08-31T03:47:08;9.03;;;7.28;;
37355;SDS011;48747;50.250;18.848;2023-08-31T03:49:13;11.10;;;7.00;;
37355;SDS011;48747;50.250;18.848;2023-08-31T03:51:16;10.00;;;7.12;;
37355;SDS011;48747;50.250;18.848;2023-08-31T03:53:19;10.15;;;7.62;;
37355;SDS011;48747;50.250;18.848;2023-08-31T03:55:23;10.35;;;7.47;;
37355;SDS011;48747;50.250;18.848;2023-08-31T03:57:26;10.32;;;7.45;;
37355;SDS011;48747;50.250;18.848;2023-08-31T03:59:29;12.88;;;7.83;;
37355;SDS011;48747;50.250;18.848;2023-08-31T04:01:32;14.93;;;7.87;;
37355;SDS011;48747;50.250;18.848;2023-08-31T04:03:35;14.30;;;8.20;;
37355;SDS011;48747;50.250;18.848;2023-08-31T04:05:41;14.03;;;7.42;;
37355;SDS011;48747;50.250;18.848;2023-08-31T04:07:44;17.30;;;7.75;;
37355;SDS011;48747;50.250;18.848;2023-08-31T04:09:47;13.72;;;7.37;;
37355;SDS011;48747;50.250;18.848;2023-08-31T04:11:50;12.13;;;7.65;;
37355;SDS011;48747;50.250;18.848;2023-08-31T04:13:53;11.15;;;7.92;;
37355;SDS011;48747;50.250;18.848;2023-08-31T04:15:57;14.50;;;7.85;;
37355;SDS011;48747;50.250;18.848;2023-08-31T04:18:00;13.58;;;9.03;;
37355;SDS011;48747;50.250;18.848;2023-08-31T04:20:05;13.80;;;8.45;;
37355;SDS011;48747;50.250;18.848;2023-08-31T04:22:15;11.57;;;7.28;;
37355;SDS011;48747;50.250;18.848;2023-08-31T04:24:15;12.10;;;8.95;;
37355;SDS011;48747;50.250;18.848;2023-08-31T04:26:18;11.55;;;8.03;;
37355;SDS011;48747;50.250;18.848;2023-08-31T04:28:21;13.62;;;7.92;;
37355;SDS011;48747;50.250;18.848;2023-08-31T04:30:25;14.43;;;7.33;;
37355;SDS011;48747;50.250;18.848;2023-08-31T04:32:28;11.70;;;7.75;;
37355;SDS011;48747;50.250;18.848;2023-08-31T04:34:31;18.30;;;8.60;;
37355;SDS011;48747;50.250;18.848;2023-08-31T04:36:34;10.82;;;8.10;;
37355;SDS011;48747;50.250;18.848;2023-08-31T04:38:37;16.40;;;7.85;;
37355;SDS011;48747;50.250;18.848;2023-08-31T04:40:40;12.23;;;8.50;;
37355;SDS011;48747;50.250;18.848;2023-08-31T04:42:44;10.43;;;7.78;;
37355;SDS011;48747;50.250;18.848;2023-08-31T04:44:47;13.83;;;8.38;;
37355;SDS011;48747;50.250;18.848;2023-08-31T04:46:56;16.62;;;8.10;;
37355;SDS011;48747;50.250;18.848;2023-08-31T04:48:56;12.43;;;8.45;;
37355;SDS011;48747;50.250;18.848;2023-08-31T04:50:59;14.80;;;7.95;;
37355;SDS011;48747;50.250;18.848;2023-08-31T04:53:04;10.00;;;7.42;;
37355;SDS011;48747;50.250;18.848;2023-08-31T04:55:07;10.70;;;7.58;;
37355;SDS011;48747;50.250;18.848;2023-08-31T04:57:12;11.40;;;7.62;;
37355;SDS011;48747;50.250;18.848;2023-08-31T04:59:15;11.68;;;7.80;;
37355;SDS011;48747;50.250;18.848;2023-08-31T05:01:18;13.00;;;8.08;;
37355;SDS011;48747;50.250;18.848;2023-08-31T05:03:21;11.20;;;7.53;;
37355;SDS011;48747;50.250;18.848;2023-08-31T05:05:24;9.35;;;7.35;;
37355;SDS011;48747;50.250;18.848;2023-08-31T05:07:27;13.68;;;8.35;;
37355;SDS011;48747;50.250;18.848;2023-08-31T05:09:30;12.05;;;7.92;;
37355;SDS011;48747;50.250;18.848;2023-08-31T05:11:36;12.40;;;8.15;;
37355;SDS011;48747;50.250;18.848;2023-08-31T05:13:39;9.83;;;7.30;;
37355;SDS011;48747;50.250;18.848;2023-08-31T05:15:45;12.20;;;7.10;;
37355;SDS011;48747;50.250;18.848;2023-08-31T05:17:48;9.95;;;7.50;;
37355;SDS011;48747;50.250;18.848;2023-08-31T05:19:51;9.38;;;7.00;;
37355;SDS011;48747;50.250;18.848;2023-08-31T05:21:55;11.22;;;6.80;;
37355;SDS011;48747;50.250;18.848;2023-08-31T05:23:58;9.68;;;6.05;;
37355;SDS011;48747;50.250;18.848;2023-08-31T05:26:01;9.28;;;6.10;;
37355;SDS011;48747;50.250;18.848;2023-08-31T05:28:04;7.53;;;5.83;;
37355;SDS011;48747;50.250;18.848;2023-08-31T05:30:07;9.53;;;6.35;;
37355;SDS011;48747;50.250;18.848;2023-08-31T05:32:10;9.20;;;6.58;;
37355;SDS011;48747;50.250;18.848;2023-08-31T05:34:16;8.90;;;6.08;;
37355;SDS011;48747;50.250;18.848;2023-08-31T05:36:21;9.20;;;6.08;;
37355;SDS011;48747;50.250;18.848;2023-08-31T05:38:24;8.95;;;6.40;;
37355;SDS011;48747;50.250;18.848;2023-08-31T05:40:27;9.38;;;6.53;;
37355;SDS011;48747;50.250;18.848;2023-08-31T05:42:32;10.23;;;5.53;;
37355;SDS011;48747;50.250;18.848;2023-08-31T05:44:35;11.35;;;7.17;;
37355;SDS011;48747;50.250;18.848;2023-08-31T05:46:38;9.60;;;6.58;;
37355;SDS011;48747;50.250;18.848;2023-08-31T05:48:42;14.38;;;7.55;;
37355;SDS011;48747;50.250;18.848;2023-08-31T05:50:46;12.82;;;7.90;;
37355;SDS011;48747;50.250;18.848;2023-08-31T05:52:55;11.90;;;6.62;;
37355;SDS011;48747;50.250;18.848;2023-08-31T05:54:55;12.68;;;8.20;;
37355;SDS011;48747;50.250;18.848;2023-08-31T05:56:58;13.60;;;8.65;;
37355;SDS011;48747;50.250;18.848;2023-08-31T05:59:03;15.05;;;8.45;;
37355;SDS011;48747;50.250;18.848;2023-08-31T06:01:07;12.50;;;8.38;;
37355;SDS011;48747;50.250;18.848;2023-08-31T06:03:10;14.63;;;8.38;;
37355;SDS011;48747;50.250;18.848;2023-08-31T06:05:13;11.68;;;7.87;;
37355;SDS011;48747;50.250;18.848;2023-08-31T06:07:18;14.23;;;8.75;;
37355;SDS011;48747;50.250;18.848;2023-08-31T06:09:21;15.43;;;8.75;;
37355;SDS011;48747;50.250;18.848;2023-08-31T06:11:26;9.15;;;6.75;;
37355;SDS011;48747;50.250;18.848;2023-08-31T06:13:29;10.70;;;6.87;;
37355;SDS011;48747;50.250;18.848;2023-08-31T06:15:32;9.90;;;6.90;;
37355;SDS011;48747;50.250;18.848;2023-08-31T06:17:35;8.53;;;6.50;;
37355;SDS011;48747;50.250;18.848;2023-08-31T06:19:38;11.25;;;7.00;;
37355;SDS011;48747;50.250;18.848;2023-08-31T06:21:42;10.85;;;6.28;;
37355;SDS011;48747;50.250;18.848;2023-08-31T06:23:45;8.93;;;6.70;;
37355;SDS011;48747;50.250;18.848;2023-08-31T06:25:48;11.12;;;6.60;;
37355;SDS011;48747;50.250;18.848;2023-08-31T06:27:52;9.18;;;6.30;;
37355;SDS011;48747;50.250;18.848;2023-08-31T06:29:55;12.07;;;6.62;;
37355;SDS011;48747;50.250;18.848;2023-08-31T06:31:58;11.55;;;6.75;;
37355;SDS011;48747;50.250;18.848;2023-08-31T06:34:04;13.22;;;7.53;;
37355;SDS011;48747;50.250;18.848;2023-08-31T06:36:07;9.43;;;7.10;;
37355;SDS011;48747;50.250;18.848;2023-08-31T06:38:10;14.63;;;7.60;;
37355;SDS011;48747;50.250;18.848;2023-08-31T06:40:13;12.85;;;8.38;;
37355;SDS011;48747;50.250;18.848;2023-08-31T06:42:16;11.83;;;7.85;;
37355;SDS011;48747;50.250;18.848;2023-08-31T06:44:27;14.03;;;8.78;;
37355;SDS011;48747;50.250;18.848;2023-08-31T06:46:31;14.18;;;9.43;;
37355;SDS011;48747;50.250;18.848;2023-08-31T06:48:36;14.23;;;10.38;;
37355;SDS011;48747;50.250;18.848;2023-08-31T06:50:41;15.43;;;11.30;;
37355;SDS011;48747;50.250;18.848;2023-08-31T06:52:49;15.75;;;11.20;;
37355;SDS011;48747;50.250;18.848;2023-08-31T06:54:52;17.10;;;12.23;;
37355;SDS011;48747;50.250;18.848;2023-08-31T06:56:59;19.82;;;10.93;;
37355;SDS011;48747;50.250;18.848;2023-08-31T06:59:04;14.83;;;10.48;;
37355;SDS011;48747;50.250;18.848;2023-08-31T07:01:12;18.37;;;11.43;;
37355;SDS011;48747;50.250;18.848;2023-08-31T07:03:18;15.90;;;10.60;;
37355;SDS011;48747;50.250;18.848;2023-08-31T07:05:24;14.87;;;9.88;;
37355;SDS011;48747;50.250;18.848;2023-08-31T07:07:29;18.82;;;11.12;;
37355;SDS011;48747;50.250;18.848;2023-08-31T07:11:40;16.67;;;11.38;;
37355;SDS011;48747;50.250;18.848;2023-08-31T07:13:46;16.70;;;10.90;;
37355;SDS011;48747;50.250;18.848;2023-08-31T07:15:58;16.00;;;10.05;;
37355;SDS011;48747;50.250;18.848;2023-08-31T07:18:29;14.15;;;9.53;;
37355;SDS011;48747;50.250;18.848;2023-08-31T07:20:39;12.88;;;9.13;;
37355;SDS011;48747;50.250;18.848;2023-08-31T07:22:44;13.15;;;8.18;;
37355;SDS011;48747;50.250;18.848;2023-08-31T07:24:51;10.60;;;6.97;;
37355;SDS011;48747;50.250;18.848;2023-08-31T07:26:56;11.12;;;6.85;;
37355;SDS011;48747;50.250;18.848;2023-08-31T07:29:10;10.48;;;6.30;;
37355;SDS011;48747;50.250;18.848;2023-08-31T07:31:11;10.20;;;6.75;;
37355;SDS011;48747;50.250;18.848;2023-08-31T07:33:15;11.78;;;6.65;;
37355;SDS011;48747;50.250;18.848;2023-08-31T07:35:19;9.68;;;5.75;;
37355;SDS011;48747;50.250;18.848;2023-08-31T07:37:31;7.58;;;5.25;;
37355;SDS011;48747;50.250;18.848;2023-08-31T07:39:33;8.20;;;4.40;;
37355;SDS011;48747;50.250;18.848;2023-08-31T07:41:38;7.78;;;4.65;;
37355;SDS011;48747;50.250;18.848;2023-08-31T07:43:41;6.90;;;4.60;;
37355;SDS011;48747;50.250;18.848;2023-08-31T07:45:50;7.83;;;5.05;;
37355;SDS011;48747;50.250;18.848;2023-08-31T07:47:50;8.40;;;4.67;;
37355;SDS011;48747;50.250;18.848;2023-08-31T07:49:53;7.12;;;3.90;;
37355;SDS011;48747;50.250;18.848;2023-08-31T07:51:56;5.67;;;3.55;;
37355;SDS011;48747;50.250;18.848;2023-08-31T07:54:00;4.85;;;3.27;;
37355;SDS011;48747;50.250;18.848;2023-08-31T07:56:09;8.35;;;3.40;;
37355;SDS011;48747;50.250;18.848;2023-08-31T07:58:10;5.53;;;3.12;;
37355;SDS011;48747;50.250;18.848;2023-08-31T08:00:15;6.70;;;3.12;;
37355;SDS011;48747;50.250;18.848;2023-08-31T08:02:24;4.90;;;2.80;;
37355;SDS011;48747;50.250;18.848;2023-08-31T08:04:25;4.60;;;2.87;;
37355;SDS011;48747;50.250;18.848;2023-08-31T08:06:28;5.60;;;2.77;;
37355;SDS011;48747;50.250;18.848;2023-08-31T08:11:09;5.78;;;2.90;;
37355;SDS011;48747;50.250;18.848;2023-08-31T08:13:14;4.85;;;2.62;;
37355;SDS011;48747;50.250;18.848;2023-08-31T08:15:24;4.80;;;2.58;;
37355;SDS011;48747;50.250;18.848;2023-08-31T08:17:23;8.63;;;2.95;;
37355;SDS011;48747;50.250;18.848;2023-08-31T08:19:29;5.28;;;2.40;;
37355;SDS011;48747;50.250;18.848;2023-08-31T08:21:34;5.90;;;2.20;;
37355;SDS011;48747;50.250;18.848;2023-08-31T08:23:38;3.65;;;2.60;;
37355;SDS011;48747;50.250;18.848;2023-08-31T08:25:47;4.47;;;2.20;;
37355;SDS011;48747;50.250;18.848;2023-08-31T08:27:48;8.58;;;2.30;;
37355;SDS011;48747;50.250;18.848;2023-08-31T08:29:54;5.05;;;2.58;;
37355;SDS011;48747;50.250;18.848;2023-08-31T08:31:57;5.35;;;2.50;;
37355;SDS011;48747;50.250;18.848;2023-08-31T08:34:00;4.72;;;2.55;;
37355;SDS011;48747;50.250;18.848;2023-08-31T08:36:07;5.22;;;2.40;;
37355;SDS011;48747;50.250;18.848;2023-08-31T08:38:09;5.00;;;2.50;;
37355;SDS011;48747;50.250;18.848;2023-08-31T08:40:13;5.95;;;2.77;;
37355;SDS011;48747;50.250;18.848;2023-08-31T08:42:17;4.28;;;2.67;;
37355;SDS011;48747;50.250;18.848;2023-08-31T08:44:21;3.77;;;2.70;;
37355;SDS011;48747;50.250;18.848;2023-08-31T08:46:26;5.08;;;2.35;;
37355;SDS011;48747;50.250;18.848;2023-08-31T08:48:30;5.25;;;2.62;;
37355;SDS011;48747;50.250;18.848;2023-08-31T08:50:36;4.85;;;2.60;;
37355;SDS011;48747;50.250;18.848;2023-08-31T08:52:41;3.42;;;2.37;;
37355;SDS011;48747;50.250;18.848;2023-08-31T08:54:48;4.80;;;3.17;;
37355;SDS011;48747;50.250;18.848;2023-08-31T08:56:52;3.80;;;2.55;;
37355;SDS011;48747;50.250;18.848;2023-08-31T08:58:55;5.58;;;2.77;;
37355;SDS011;48747;50.250;18.848;2023-08-31T09:00:58;4.58;;;2.87;;
37355;SDS011;48747;50.250;18.848;2023-08-31T09:03:01;5.67;;;2.52;;
37355;SDS011;48747;50.250;18.848;2023-08-31T09:05:05;4.33;;;2.60;;
37355;SDS011;48747;50.250;18.848;2023-08-31T09:07:08;3.55;;;2.60;;
37355;SDS011;48747;50.250;18.848;2023-08-31T09:09:11;6.58;;;2.55;;
37355;SDS011;48747;50.250;18.848;2023-08-31T09:11:19;5.25;;;2.72;;
37355;SDS011;48747;50.250;18.848;2023-08-31T09:13:30;3.80;;;2.80;;
37355;SDS011;48747;50.250;18.848;2023-08-31T09:15:45;5.97;;;3.15;;
37355;SDS011;48747;50.250;18.848;2023-08-31T09:17:49;6.40;;;3.52;;
37355;SDS011;48747;50.250;18.848;2023-08-31T09:20:00;5.65;;;3.40;;
37355;SDS011;48747;50.250;18.848;2023-08-31T09:22:06;8.20;;;3.30;;
37355;SDS011;48747;50.250;18.848;2023-08-31T09:24:11;5.60;;;3.27;;
37355;SDS011;48747;50.250;18.848;2023-08-31T09:26:15;5.05;;;2.80;;
37355;SDS011;48747;50.250;18.848;2023-08-31T09:28:25;4.40;;;2.83;;
37355;SDS011;48747;50.250;18.848;2023-08-31T09:30:34;5.50;;;3.10;;
37355;SDS011;48747;50.250;18.848;2023-08-31T09:32:39;6.47;;;2.90;;
37355;SDS011;48747;50.250;18.848;2023-08-31T09:34:44;4.55;;;2.40;;
37355;SDS011;48747;50.250;18.848;2023-08-31T09:36:48;4.25;;;2.87;;
37355;SDS011;48747;50.250;18.848;2023-08-31T09:38:51;4.20;;;3.05;;
37355;SDS011;48747;50.250;18.848;2023-08-31T09:41:04;5.03;;;3.10;;
37355;SDS011;48747;50.250;18.848;2023-08-31T09:43:09;5.55;;;3.30;;
37355;SDS011;48747;50.250;18.848;2023-08-31T09:45:12;4.67;;;2.60;;
37355;SDS011;48747;50.250;18.848;2023-08-31T09:47:22;6.37;;;2.60;;
37355;SDS011;48747;50.250;18.848;2023-08-31T09:49:24;4.37;;;2.80;;
37355;SDS011;48747;50.250;18.848;2023-08-31T09:51:32;4.08;;;3.30;;
37355;SDS011;48747;50.250;18.848;2023-08-31T09:53:37;5.10;;;3.10;;
37355;SDS011;48747;50.250;18.848;2023-08-31T09:55:43;7.47;;;3.20;;
37355;SDS011;48747;50.250;18.848;2023-08-31T09:57:47;4.15;;;2.70;;
37355;SDS011;48747;50.250;18.848;2023-08-31T09:59:53;4.53;;;2.80;;
37355;SDS011;48747;50.250;18.848;2023-08-31T10:01:56;3.60;;;2.85;;
37355;SDS011;48747;50.250;18.848;2023-08-31T10:04:02;3.20;;;2.50;;
37355;SDS011;48747;50.250;18.848;2023-08-31T10:06:07;4.20;;;2.62;;
37355;SDS011;48747;50.250;18.848;2023-08-31T10:08:11;3.60;;;2.47;;
37355;SDS011;48747;50.250;18.848;2023-08-31T10:10:14;6.05;;;3.05;;
37355;SDS011;48747;50.250;18.848;2023-08-31T10:12:20;3.80;;;2.55;;
37355;SDS011;48747;50.250;18.848;2023-08-31T10:14:24;4.20;;;2.77;;
37355;SDS011;48747;50.250;18.848;2023-08-31T10:16:28;5.58;;;3.30;;
37355;SDS011;48747;50.250;18.848;2023-08-31T10:18:38;7.03;;;2.95;;
37355;SDS011;48747;50.250;18.848;2023-08-31T10:20:39;4.42;;;3.22;;
37355;SDS011;48747;50.250;18.848;2023-08-31T10:22:44;4.92;;;2.90;;
37355;SDS011;48747;50.250;18.848;2023-08-31T10:24:58;4.80;;;3.05;;
37355;SDS011;48747;50.250;18.848;2023-08-31T10:27:19;5.60;;;3.45;;
37355;SDS011;48747;50.250;18.848;2023-08-31T10:29:26;6.70;;;4.35;;
37355;SDS011;48747;50.250;18.848;2023-08-31T10:31:32;5.62;;;4.00;;
37355;SDS011;48747;50.250;18.848;2023-08-31T10:33:41;7.72;;;4.20;;
37355;SDS011;48747;50.250;18.848;2023-08-31T10:35:50;6.42;;;4.40;;
37355;SDS011;48747;50.250;18.848;2023-08-31T10:38:12;5.65;;;4.08;;
37355;SDS011;48747;50.250;18.848;2023-08-31T10:40:19;6.97;;;3.75;;
37355;SDS011;48747;50.250;18.848;2023-08-31T10:42:24;4.12;;;3.47;;
37355;SDS011;48747;50.250;18.848;2023-08-31T10:44:34;6.87;;;3.62;;
37355;SDS011;48747;50.250;18.848;2023-08-31T10:46:42;7.53;;;4.15;;
37355;SDS011;48747;50.250;18.848;2023-08-31T10:48:49;5.65;;;4.25;;
37355;SDS011;48747;50.250;18.848;2023-08-31T10:51:05;6.05;;;4.08;;
37355;SDS011;48747;50.250;18.848;2023-08-31T10:53:10;6.40;;;3.92;;
37355;SDS011;48747;50.250;18.848;2023-08-31T10:55:16;5.37;;;3.92;;
37355;SDS011;48747;50.250;18.848;2023-08-31T10:57:19;6.28;;;4.03;;
37355;SDS011;48747;50.250;18.848;2023-08-31T10:59:26;5.30;;;3.62;;
37355;SDS011;48747;50.250;18.848;2023-08-31T11:03:57;6.35;;;3.77;;
37355;SDS011;48747;50.250;18.848;2023-08-31T11:06:00;7.22;;;3.77;;
37355;SDS011;48747;50.250;18.848;2023-08-31T11:08:04;5.78;;;3.85;;
37355;SDS011;48747;50.250;18.848;2023-08-31T11:10:10;5.35;;;3.60;;
37355;SDS011;48747;50.250;18.848;2023-08-31T11:12:14;7.75;;;3.67;;
37355;SDS011;48747;50.250;18.848;2023-08-31T11:14:17;9.23;;;3.83;;
37355;SDS011;48747;50.250;18.848;2023-08-31T11:16:20;6.58;;;3.77;;
37355;SDS011;48747;50.250;18.848;2023-08-31T11:18:25;5.50;;;3.50;;
37355;SDS011;48747;50.250;18.848;2023-08-31T11:20:28;6.30;;;3.20;;
37355;SDS011;48747;50.250;18.848;2023-08-31T11:22:33;7.20;;;3.10;;
37355;SDS011;48747;50.250;18.848;2023-08-31T11:24:38;5.65;;;3.10;;
37355;SDS011;48747;50.250;18.848;2023-08-31T11:26:47;5.28;;;2.80;;
37355;SDS011;48747;50.250;18.848;2023-08-31T11:28:51;5.10;;;3.22;;
37355;SDS011;48747;50.250;18.848;2023-08-31T11:30:59;4.97;;;3.10;;
37355;SDS011;48747;50.250;18.848;2023-08-31T11:33:08;3.80;;;3.30;;
37355;SDS011;48747;50.250;18.848;2023-08-31T11:35:13;6.65;;;3.05;;
37355;SDS011;48747;50.250;18.848;2023-08-31T11:37:18;4.80;;;3.25;;
37355;SDS011;48747;50.250;18.848;2023-08-31T11:39:22;4.90;;;2.60;;
37355;SDS011;48747;50.250;18.848;2023-08-31T11:41:29;4.17;;;3.35;;
37355;SDS011;48747;50.250;18.848;2023-08-31T11:43:32;3.67;;;2.92;;
37355;SDS011;48747;50.250;18.848;2023-08-31T11:45:36;4.05;;;2.60;;
37355;SDS011;48747;50.250;18.848;2023-08-31T11:47:41;3.87;;;2.77;;
37355;SDS011;48747;50.250;18.848;2023-08-31T11:49:45;7.20;;;3.27;;
37355;SDS011;48747;50.250;18.848;2023-08-31T11:51:50;6.25;;;2.70;;
37355;SDS011;48747;50.250;18.848;2023-08-31T11:53:53;6.30;;;2.70;;
37355;SDS011;48747;50.250;18.848;2023-08-31T11:56:01;6.10;;;2.70;;
37355;SDS011;48747;50.250;18.848;2023-08-31T11:58:04;4.42;;;2.83;;
37355;SDS011;48747;50.250;18.848;2023-08-31T12:00:10;4.60;;;2.60;;
37355;SDS011;48747;50.250;18.848;2023-08-31T12:02:14;3.85;;;2.80;;
37355;SDS011;48747;50.250;18.848;2023-08-31T12:04:19;3.75;;;2.65;;
37355;SDS011;48747;50.250;18.848;2023-08-31T12:06:24;5.37;;;2.60;;
37355;SDS011;48747;50.250;18.848;2023-08-31T12:08:29;3.75;;;2.60;;
37355;SDS011;48747;50.250;18.848;2023-08-31T12:10:32;3.87;;;2.75;;
37355;SDS011;48747;50.250;18.848;2023-08-31T12:12:38;3.85;;;2.80;;
37355;SDS011;48747;50.250;18.848;2023-08-31T12:14:42;3.92;;;2.83;;
37355;SDS011;48747;50.250;18.848;2023-08-31T12:16:46;4.33;;;2.35;;
37355;SDS011;48747;50.250;18.848;2023-08-31T12:18:49;3.65;;;2.15;;
37355;SDS011;48747;50.250;18.848;2023-08-31T12:20:52;6.83;;;2.30;;
37355;SDS011;48747;50.250;18.848;2023-08-31T12:22:58;4.10;;;2.45;;
37355;SDS011;48747;50.250;18.848;2023-08-31T12:25:02;4.12;;;2.20;;
37355;SDS011;48747;50.250;18.848;2023-08-31T12:27:05;4.60;;;2.10;;